• Join FlightAware (Why Join?)
  • Login
  • US Flag 
09:39PM EDT


 

Airport Tracker/Info


-or-


 

Live Flight TrackerFlight Track Log ✈ UAL5847 ✈ 26-Apr-2013 ✈ KORD - CYOW

Flight Track Log - Related Links

Times and Time Zones

All times are in EDT time to prevent confusion due to time zone crossing. See the UAL5847 flight status page for this flight to view local times or setup timezone preferences in your user account.

Time Position Orientation Groundspeed Altitude Reporting Facility
EDT Latitude Longitude Course Direction KTS MPH feet Rate Location/Type
10:15AM 41.9333 -87.9167 114° Southeast 150 173 3,300  Level Chicago TRACON
10:16AM 41.9000 -87.8167 114° Southeast 273 314 5,000 780 Climbing Chicago TRACON
10:17AM 41.9167 -87.7333 75° East 280 322 5,000 60 Level Chicago TRACON
10:18AM 41.9500 -87.6333 66° East 280 322 5,200 1,260 Climbing Chicago TRACON
10:19AM 42.0000 -87.5667 45° Northeast 281 323 7,700 2,340 Climbing Chicago TRACON
10:20AM 42.0667 -87.5000 37° Northeast 290 334 9,900 2,100 Climbing Chicago TRACON
10:21AM 42.1372 -87.4189 40° Northeast 298 343 12,200 1,920 Climbing Chicago Center
10:22AM 42.1872 -87.3242 55° Northeast 325 374 14,100 1,500 Climbing Chicago Center
10:24AM 42.2281 -87.2114 64° Northeast 333 383 15,400 1,080 Climbing Chicago Center
10:25AM 42.2700 -87.0883 65° Northeast 356 410 16,400 960 Climbing Chicago Center
10:26AM 42.2831 -86.9442 83° East 390 449 17,500 960 Climbing Chicago Center
10:27AM 42.2900 -86.7667 87° East 396 456 18,400 960 Climbing Chicago Center
10:28AM 42.2967 -86.6317 86° East 401 461 19,500 1,080 Climbing Chicago Center
10:29AM 42.3036 -86.4542 87° East 412 474 20,700 1,020 Climbing Chicago Center
10:31AM 42.3147 -86.1364 87° East 430 495 22,800 960 Climbing Chicago Center
10:32AM 42.3136 -85.9736 90° East 436 502 23,700 900 Climbing Chicago Center
10:33AM 42.3117 -85.8067 91° East 445 512 24,700 1,020 Climbing Chicago Center
10:34AM 42.3092 -85.6050 91° East 450 518 25,900 1,020 Climbing Chicago Center
10:35AM 42.3064 -85.4333 91° East 456 525 26,900 900 Climbing Chicago Center
10:35AM 42.3072 -85.3483 89° East 448 516 27,400 900 Climbing Cleveland Center
10:36AM 42.3058 -85.1769 91° East 443 510 28,400 960 Climbing Cleveland Center
10:37AM 42.3022 -85.0056 92° East 454 522 29,400 960 Climbing Cleveland Center
10:38AM 42.2961 -84.8308 93° East 459 528 30,400 900 Climbing Cleveland Center
10:39AM 42.2917 -84.6706 92° East 460 529 31,200 960 Climbing Cleveland Center
10:40AM 42.2858 -84.4792 92° East 465 535 32,400 1,080 Climbing Cleveland Center
10:41AM 42.3064 -84.3008 81° East 465 535 33,400 960 Climbing Cleveland Center
10:42AM 42.3325 -84.1308 78° East 460 529 34,400 780 Climbing Cleveland Center
10:43AM 42.3586 -83.9525 79° East 471 542 35,000 300 Climbing Cleveland Center
10:44AM 42.3828 -83.7681 80° East 482 555 35,000  Level Cleveland Center
10:45AM 42.4128 -83.5811 78° East 496 571 35,000  Level Cleveland Center
10:46AM 42.4589 -83.4061 70° East 496 571 35,000  Level Cleveland Center
10:47AM 42.5092 -83.2167 70° East 491 565 35,000  Level Cleveland Center
10:48AM 42.5547 -83.0411 71° East 491 565 35,000  Level Cleveland Center
10:49AM 42.6000 -82.8681 70° East 491 565 35,000  Level Cleveland Center
10:50AM 42.6472 -82.6917 70° East 491 565 35,000  Level Cleveland Center
10:51AM 42.6919 -82.5181 71° East 491 565 35,000  Level Cleveland Center
10:52AM 42.7364 -82.3414 71° East 481 554 35,000  Level Cleveland Center
10:53AM 42.7806 -82.1731 70° East 481 554 35,000  Level Cleveland Center
10:54AM 42.8244 -81.9986 71° East 481 554 35,000  Level Cleveland Center
10:56AM 42.9000 -81.6667 73° East 490 564 35,000  Level Toronto Center
10:57AM 42.9333 -81.5000 75° East 490 564 35,000  Level Toronto Center
10:58AM 42.9833 -81.3167 69° East 480 552 35,000  Level Toronto Center
10:59AM 43.0167 -81.1333 76° East 480 552 35,000  Level Toronto Center
11:00AM 43.0833 -80.9833 59° Northeast 470 541 35,000  Level Toronto Center
11:01AM 43.1500 -80.8167 61° Northeast 470 541 35,000  Level Toronto Center
11:02AM 43.2333 -80.6667 53° Northeast 470 541 35,000  Level Toronto Center
11:03AM 43.2833 -80.5333 63° Northeast 470 541 35,000  Level Toronto Center
11:04AM 43.3500 -80.3667 61° Northeast 470 541 35,000  Level Toronto Center
11:05AM 43.4167 -80.2000 61° Northeast 470 541 35,000  Level Toronto Center
11:06AM 43.4667 -80.0500 65° Northeast 460 529 35,000  Level Toronto Center
11:07AM 43.5333 -79.9167 55° Northeast 450 518 35,000  Level Toronto Center
11:08AM 43.5833 -79.7500 67° East 450 518 35,000  Level Toronto Center
11:09AM 43.6500 -79.5833 61° Northeast 460 529 35,000  Level Toronto Center
11:10AM 43.7000 -79.4333 65° Northeast 460 529 35,000  Level Toronto Center
11:11AM 43.7500 -79.2667 67° East 460 529 35,000  Level Toronto Center
11:12AM 43.8000 -79.1000 67° East 460 529 35,000  Level Toronto Center
11:13AM 43.8500 -78.9333 67° East 460 529 35,000  Level Toronto Center
11:14AM 43.9000 -78.7833 65° Northeast 460 529 35,000  Level Toronto Center
11:15AM 43.9500 -78.6167 67° East 450 518 35,000  Level Toronto Center
11:16AM 43.9667 -78.4500 82° East 460 529 35,000  Level Toronto Center
11:17AM 44.0333 -78.2833 61° Northeast 460 529 35,000  Level Toronto Center
11:18AM 44.1000 -78.1500 55° Northeast 460 529 35,000 -60 Level Toronto Center
11:19AM 44.1667 -77.9833 61° Northeast 450 518 34,900 -1,380 Descending Toronto Center
11:22AM 44.3667 -77.5833 55° Northeast 450 518 29,700 -1,740 Descending Montreal Center
11:23AM 44.4333 -77.4500 55° Northeast 440 506 28,000 -1,860 Descending Montreal Center
11:24AM 44.5000 -77.2833 61° Northeast 450 518 26,000 -1,860 Descending Montreal Center
11:25AM 44.5667 -77.1167 61° Northeast 460 529 24,300 -1,740 Descending Montreal Center
11:26AM 44.6167 -76.9833 62° Northeast 440 506 22,600 -1,860 Descending Montreal Center
11:27AM 44.7000 -76.8333 52° Northeast 440 506 20,600 -1,980 Descending Montreal Center
11:28AM 44.7667 -76.7167 51° Northeast 420 483 18,700 -1,800 Descending Montreal Center
11:29AM 44.8333 -76.5833 55° Northeast 400 460 17,100 -1,800 Descending Montreal Center
11:30AM 44.8833 -76.4667 59° Northeast 390 449 15,200 -2,040 Descending Montreal Center
11:31AM 44.9500 -76.3500 51° Northeast 380 437 13,100 -1,800 Descending Montreal Center
11:32AM 45.0000 -76.2333 59° Northeast 340 391 11,700 -1,500 Descending Montreal Center
11:33AM 45.0167 -76.1167 79° East 300 345 10,200 -1,560 Descending Montreal Center
11:34AM 45.0333 -76.0167 77° East 270 311 8,600 -1,740 Descending Montreal Center
11:35AM 45.0500 -75.9167 77° East 260 299 6,800 -1,740 Descending Montreal Center
11:36AM 45.0667 -75.8000 79° East 260 299 5,200 -1,200 Descending Montreal Center
11:37AM 45.0833 -75.7000 77° East 250 288 4,400 -1,080 Descending Montreal Center
11:38AM 45.1000 -75.6167 74° East 240 276 3,100 -720 Descending Montreal Center
11:39AM 45.1333 -75.5667 47° Northeast 240 276 3,000 -480 Descending Montreal Center
11:40AM 45.2000 -75.5167 28° Northeast 220 253 2,200 -480 Descending Montreal Center
11:41AM 45.2333 -75.5333 341° North 190 219 2,100 -360 Descending Montreal Center
11:42AM 45.2667 -75.5833 313° West 140 161 1,500 -720 Descending Montreal Center
11:43AM 45.2833 -75.6333 295° West 130 150 700 -600 Descending Montreal Center
11:44AM 45.3000 -75.6833 295° West 130 150 400 -300 Descending Montreal Center